Orbital elements of BREEZE-M R/B
| Launched | 19 May 2011 |
| Flight ended | – |
| Launch site | Tyuratam Missile and Space Center, Kazakhstan (Also known as Baikonur Cosmodrome) |
| Owner | Commonwealth of Independent States (former USSR) |
| NORAD ID | 37603 |
| Date fetched |
Epoch osculation |
Inc. [°] |
Ecc. | RA asc node [hr] |
Arg Peri. [°] |
Mean anom [°] |
Mean motion [rev/day] |
Abs. mag |
| Date fetched |
Epoch osculation |
Inc. [°] |
Ecc. | RA asc node [hr] |
Arg Peri. [°] |
Mean anom [°] |
Mean motion [rev/day] |
Abs. mag |
| 2026 May 01 17:56 | 2026 Apr 30 08:52:50 | 15.0312 | 0.48735 | 20.9022 | 27.4587 | 351.6360 | 1.92766 | – |
| 2026 Apr 30 17:56 | 2026 Apr 30 08:52:50 | 15.0312 | 0.48735 | 20.9022 | 27.4587 | 351.6360 | 1.92766 | – |
| 2026 Apr 29 17:57 | 2026 Apr 24 03:29:16 | 15.0424 | 0.48741 | 20.9450 | 26.2327 | 351.6360 | 1.92766 | – |
| 2026 Apr 28 17:56 | 2026 Apr 24 03:29:16 | 15.0424 | 0.48741 | 20.9450 | 26.2327 | 351.6360 | 1.92766 | – |
| 2026 Apr 27 17:58 | 2026 Apr 24 03:29:16 | 15.0424 | 0.48741 | 20.9450 | 26.2327 | 351.6360 | 1.92766 | – |
| 2026 Apr 26 17:58 | 2026 Apr 24 03:29:16 | 15.0424 | 0.48741 | 20.9450 | 26.2327 | 351.6360 | 1.92766 | – |
| 2026 Apr 25 17:58 | 2026 Apr 24 03:29:16 | 15.0424 | 0.48741 | 20.9450 | 26.2327 | 351.6360 | 1.92766 | – |
| 2026 Apr 24 17:59 | 2026 Apr 24 03:29:16 | 15.0424 | 0.48741 | 20.9450 | 26.2327 | 351.6360 | 1.92766 | – |
| 2026 Apr 23 17:57 | 2026 Apr 18 22:59:47 | 15.0517 | 0.48747 | 20.9806 | 25.2101 | 351.6360 | 1.92766 | – |
| 2026 Apr 22 17:57 | 2026 Apr 18 22:59:47 | 15.0517 | 0.48747 | 20.9806 | 25.2101 | 351.6360 | 1.92766 | – |
| 2026 Apr 21 17:57 | 2026 Apr 18 22:59:47 | 15.0517 | 0.48747 | 20.9806 | 25.2101 | 351.6360 | 1.92766 | – |
| 2026 Apr 20 17:57 | 2026 Apr 18 22:59:47 | 15.0517 | 0.48747 | 20.9806 | 25.2101 | 351.6360 | 1.92766 | – |
| 2026 Apr 19 17:58 | 2026 Apr 18 22:59:47 | 15.0517 | 0.48747 | 20.9806 | 25.2101 | 351.6360 | 1.92766 | – |
| 2026 Apr 18 17:56 | 2026 Apr 12 17:36:14 | 15.0624 | 0.48753 | 21.0233 | 23.9835 | 351.6360 | 1.92766 | – |
| 2026 Apr 16 17:57 | 2026 Apr 12 17:36:14 | 15.0624 | 0.48753 | 21.0233 | 23.9835 | 351.6360 | 1.92766 | – |
| 2026 Apr 14 17:57 | 2026 Apr 12 17:36:14 | 15.0624 | 0.48753 | 21.0233 | 23.9835 | 351.6360 | 1.92766 | – |
| 2026 Apr 13 17:57 | 2026 Apr 12 17:36:14 | 15.0624 | 0.48753 | 21.0233 | 23.9835 | 351.6360 | 1.92766 | – |
| 2026 Apr 12 17:57 | 2026 Apr 08 01:33:36 | 15.0705 | 0.48759 | 21.0553 | 23.0634 | 351.6360 | 1.92766 | – |
| 2026 Apr 11 17:57 | 2026 Apr 08 01:33:36 | 15.0705 | 0.48759 | 21.0553 | 23.0634 | 351.6360 | 1.92766 | – |
| 2026 Apr 10 17:58 | 2026 Apr 08 01:33:36 | 15.0705 | 0.48759 | 21.0553 | 23.0634 | 351.6360 | 1.92766 | – |
| 2026 Apr 09 18:01 | 2026 Apr 08 01:33:36 | 15.0705 | 0.48759 | 21.0553 | 23.0634 | 351.6360 | 1.92766 | – |
| 2026 Apr 08 17:57 | 2026 Apr 08 01:33:36 | 15.0705 | 0.48759 | 21.0553 | 23.0634 | 351.6360 | 1.92766 | – |
| 2026 Apr 07 17:57 | 2026 Apr 01 20:10:07 | 15.0808 | 0.48766 | 21.0980 | 21.8360 | 351.6360 | 1.92766 | – |
| 2026 Apr 06 17:57 | 2026 Apr 01 20:10:07 | 15.0808 | 0.48766 | 21.0980 | 21.8360 | 351.6360 | 1.92766 | – |
| 2026 Apr 05 17:56 | 2026 Apr 01 20:10:07 | 15.0808 | 0.48766 | 21.0980 | 21.8360 | 351.6360 | 1.92766 | – |
| 2026 Apr 04 17:57 | 2026 Apr 01 20:10:07 | 15.0808 | 0.48766 | 21.0980 | 21.8360 | 351.6360 | 1.92766 | – |